Time;durP1;ratioP1;P1;durP2;ratioP2;P2;SDS_P1;SDS_P2;PMS_P1;PMS_P2;Temp;Humidity;BMP_temperature;BMP_pressure;BME280_temperature;BME280_humidity;BME280_pressure;Samples;Min_cycle;Max_cycle;Signal;HPM_P1;HPM_P2
2021/10/10 00:01:48;;;;;;;47.83;27.25;;;7.10;99.90;;;;;;4839035;29;20311;-87
2021/10/10 00:04:14;;;;;;;38.30;24.42;;;7.10;99.90;;;;;;4843811;29;20654;-86
2021/10/10 00:06:40;;;;;;;38.80;25.75;;;7.00;99.90;;;;;;4810545;29;20040;-87
2021/10/10 00:09:06;;;;;;;45.85;25.42;;;7.00;99.90;;;;;;4830346;29;20044;-86
2021/10/10 00:11:31;;;;;;;45.75;25.02;;;6.90;99.90;;;;;;4827958;29;20047;-87
2021/10/10 00:13:57;;;;;;;58.00;27.85;;;6.90;99.90;;;;;;4825552;29;20045;-86
2021/10/10 00:16:23;;;;;;;45.47;26.88;;;6.90;99.90;;;;;;4853510;29;20041;-87
2021/10/10 00:18:49;;;;;;;43.38;26.55;;;6.90;99.90;;;;;;4840578;29;20045;-87
2021/10/10 00:21:15;;;;;;;46.60;27.52;;;6.90;99.90;;;;;;4833486;29;20040;-87
2021/10/10 00:23:41;;;;;;;41.92;26.40;;;6.90;99.90;;;;;;4837833;29;20556;-87
2021/10/10 00:26:07;;;;;;;47.42;24.92;;;6.90;99.90;;;;;;4822245;29;20144;-87
2021/10/10 00:28:33;;;;;;;44.90;26.25;;;6.90;99.90;;;;;;4843590;29;20130;-87
2021/10/10 00:30:59;;;;;;;40.25;24.33;;;6.90;99.90;;;;;;4844441;29;20433;-86
2021/10/10 00:33:25;;;;;;;48.60;26.25;;;6.80;99.90;;;;;;4811754;29;20480;-86
2021/10/10 00:35:51;;;;;;;38.92;25.08;;;6.80;99.90;;;;;;4814776;29;20037;-87
2021/10/10 00:38:17;;;;;;;44.70;25.88;;;6.70;99.90;;;;;;4828025;29;20064;-86
2021/10/10 00:40:43;;;;;;;47.88;26.17;;;6.70;99.90;;;;;;4824279;29;20037;-87
2021/10/10 00:43:09;;;;;;;42.30;26.75;;;6.70;99.90;;;;;;4834267;29;20071;-87
2021/10/10 00:45:34;;;;;;;47.47;25.80;;;6.60;99.90;;;;;;4869684;29;20211;-87
2021/10/10 00:48:01;;;;;;;39.22;24.05;;;6.60;99.90;;;;;;4828861;29;20049;-87
2021/10/10 00:50:28;;;;;;;37.13;24.42;;;6.60;99.90;;;;;;4844502;29;20098;-87
2021/10/10 00:52:54;;;;;;;50.45;25.45;;;6.60;99.90;;;;;;4844618;29;20046;-87
2021/10/10 00:55:21;;;;;;;38.80;23.83;;;6.60;99.90;;;;;;4849973;29;20049;-87
2021/10/10 00:57:49;;;;;;;34.72;24.35;;;6.60;99.90;;;;;;4846185;29;20481;-87
2021/10/10 01:00:16;;;;;;;47.38;26.25;;;6.50;99.90;;;;;;4840062;29;20045;-86
2021/10/10 01:02:43;;;;;;;39.05;23.75;;;6.50;99.90;;;;;;4826483;29;20516;-87
2021/10/10 01:05:11;;;;;;;42.85;23.33;;;6.50;99.90;;;;;;4834446;29;20037;-86
2021/10/10 01:07:36;;;;;;;39.72;24.88;;;6.40;99.90;;;;;;4818492;29;20152;-87
2021/10/10 01:10:04;;;;;;;39.67;23.02;;;6.40;99.90;;;;;;4845448;29;20540;-88
2021/10/10 01:12:30;;;;;;;38.80;23.65;;;6.40;99.90;;;;;;4846853;29;20037;-86
2021/10/10 01:14:56;;;;;;;40.00;23.70;;;6.40;99.90;;;;;;4841588;29;20048;-87
2021/10/10 01:17:24;;;;;;;42.05;24.15;;;6.40;99.90;;;;;;4838246;29;20049;-86
2021/10/10 01:19:52;;;;;;;41.65;23.85;;;6.40;99.90;;;;;;4823599;29;20048;-86
2021/10/10 01:22:18;;;;;;;43.80;24.48;;;6.30;99.90;;;;;;4825457;29;20081;-86
2021/10/10 01:24:44;;;;;;;41.60;23.80;;;6.40;99.90;;;;;;4832013;29;20037;-86
2021/10/10 01:27:11;;;;;;;44.90;23.10;;;6.30;99.90;;;;;;4844691;29;20421;-87
2021/10/10 01:29:37;;;;;;;30.25;20.77;;;6.30;99.90;;;;;;4814677;29;20237;-87
2021/10/10 01:32:03;;;;;;;41.50;22.30;;;6.30;99.90;;;;;;4829835;29;20041;-87
2021/10/10 01:34:29;;;;;;;33.65;20.08;;;6.30;99.90;;;;;;4818081;29;20045;-87
2021/10/10 01:36:54;;;;;;;44.88;23.55;;;6.30;99.90;;;;;;4802361;29;20520;-86
2021/10/10 01:39:20;;;;;;;38.40;24.20;;;6.20;99.90;;;;;;4828934;29;20038;-87
2021/10/10 01:41:46;;;;;;;48.70;23.98;;;6.20;99.90;;;;;;4833583;29;20594;-87
2021/10/10 01:44:16;;;;;;;39.65;23.52;;;6.20;99.90;;;;;;4807934;29;20041;-87
2021/10/10 01:46:43;;;;;;;33.63;21.88;;;6.20;99.90;;;;;;4823500;29;20511;-87
2021/10/10 01:49:09;;;;;;;35.47;22.40;;;6.20;99.90;;;;;;4828644;29;20045;-86
2021/10/10 01:51:35;;;;;;;35.10;21.98;;;6.10;99.90;;;;;;4840023;29;20057;-86
2021/10/10 01:54:02;;;;;;;35.55;21.20;;;6.10;99.90;;;;;;4822700;29;20396;-86
2021/10/10 01:56:28;;;;;;;37.25;22.63;;;6.10;99.90;;;;;;4844500;29;20049;-87
2021/10/10 01:58:54;;;;;;;39.30;21.08;;;6.00;99.90;;;;;;4851124;29;20167;-86
2021/10/10 02:01:20;;;;;;;28.13;20.90;;;6.00;99.90;;;;;;4831559;29;20061;-88
2021/10/10 02:03:45;;;;;;;34.15;21.55;;;6.00;99.90;;;;;;4848224;29;20076;-87
2021/10/10 02:06:11;;;;;;;40.30;23.17;;;6.00;99.90;;;;;;4826824;29;20033;-86
2021/10/10 02:08:37;;;;;;;31.45;20.17;;;6.00;99.90;;;;;;4820096;29;20051;-86
2021/10/10 02:11:02;;;;;;;36.60;21.85;;;5.90;99.90;;;;;;4820880;29;20084;-87
2021/10/10 02:13:28;;;;;;;29.38;19.33;;;5.90;99.90;;;;;;4813955;29;20045;-88
2021/10/10 02:15:55;;;;;;;33.55;21.27;;;5.90;99.90;;;;;;4812426;29;20037;-86
2021/10/10 02:18:21;;;;;;;42.35;22.02;;;5.90;99.90;;;;;;4830826;29;20134;-86
2021/10/10 02:20:47;;;;;;;35.80;21.95;;;5.80;99.90;;;;;;4815628;29;20067;-88
2021/10/10 02:23:12;;;;;;;24.50;18.77;;;5.80;99.90;;;;;;4821306;29;20236;-87
2021/10/10 02:25:38;;;;;;;45.00;22.73;;;5.80;99.90;;;;;;4817311;29;20041;-87
2021/10/10 02:28:04;;;;;;;42.60;22.85;;;5.70;99.90;;;;;;4817283;29;20053;-86
2021/10/10 02:30:30;;;;;;;31.30;21.10;;;5.80;99.90;;;;;;4818464;29;20500;-87
2021/10/10 02:32:56;;;;;;;37.75;22.35;;;5.80;99.90;;;;;;4830009;29;20045;-87
2021/10/10 02:35:21;;;;;;;34.38;21.23;;;5.80;99.90;;;;;;4835791;29;21576;-88
2021/10/10 02:37:47;;;;;;;36.20;20.90;;;5.80;99.90;;;;;;4837373;29;20171;-86
2021/10/10 02:40:13;;;;;;;35.95;21.42;;;5.70;99.90;;;;;;4814728;29;20075;-86
2021/10/10 02:42:39;;;;;;;30.48;20.02;;;5.70;99.90;;;;;;4808297;29;20052;-86
2021/10/10 02:45:06;;;;;;;30.67;19.75;;;5.70;99.90;;;;;;4816688;29;20055;-86
2021/10/10 02:47:32;;;;;;;37.08;21.00;;;5.60;99.90;;;;;;4802366;29;20045;-86
2021/10/10 02:49:58;;;;;;;34.55;21.05;;;5.60;99.90;;;;;;4832628;29;20482;-86
2021/10/10 02:52:24;;;;;;;32.53;20.65;;;5.60;99.90;;;;;;4837983;29;20033;-87
2021/10/10 02:54:50;;;;;;;38.47;21.98;;;5.60;99.90;;;;;;4829225;29;20096;-87
2021/10/10 02:57:16;;;;;;;33.85;22.83;;;5.60;99.90;;;;;;4827624;29;20101;-86
2021/10/10 02:59:42;;;;;;;32.20;21.13;;;5.60;99.90;;;;;;4831116;29;20386;-87
2021/10/10 03:02:08;;;;;;;38.97;21.70;;;5.60;99.90;;;;;;4811849;29;20108;-87
2021/10/10 03:04:34;;;;;;;32.40;20.98;;;5.60;99.90;;;;;;4800316;29;20130;-86
2021/10/10 03:07:00;;;;;;;41.55;21.50;;;5.50;99.90;;;;;;4830097;29;20038;-88
2021/10/10 03:09:26;;;;;;;38.58;21.00;;;5.50;99.90;;;;;;4808121;29;20041;-87
2021/10/10 03:11:54;;;;;;;35.80;21.45;;;5.50;99.90;;;;;;4807110;29;20052;-87
2021/10/10 03:14:20;;;;;;;33.55;20.75;;;5.50;99.90;;;;;;4807775;29;20037;-88
2021/10/10 03:16:45;;;;;;;39.80;22.83;;;5.50;99.90;;;;;;4820261;29;20420;-86
2021/10/10 03:19:11;;;;;;;36.38;21.73;;;5.50;99.90;;;;;;4820737;29;20045;-87
2021/10/10 03:21:38;;;;;;;34.85;20.80;;;5.50;99.90;;;;;;4794595;29;21098;-87
2021/10/10 03:24:04;;;;;;;37.90;22.42;;;5.40;99.90;;;;;;4821562;29;20382;-87
2021/10/10 03:26:30;;;;;;;36.03;21.17;;;5.40;99.90;;;;;;4835451;29;20041;-87
2021/10/10 03:28:56;;;;;;;36.20;20.50;;;5.40;99.90;;;;;;4800862;29;20580;-87
2021/10/10 03:31:22;;;;;;;33.00;20.20;;;5.40;99.90;;;;;;4824004;29;20437;-86
2021/10/10 03:33:47;;;;;;;39.38;21.67;;;5.40;99.90;;;;;;4805965;29;20116;-86
2021/10/10 03:36:13;;;;;;;36.20;20.70;;;5.30;99.90;;;;;;4812454;29;20108;-88
2021/10/10 03:38:39;;;;;;;32.35;20.05;;;5.30;99.90;;;;;;4827932;29;20629;-86
2021/10/10 03:41:05;;;;;;;36.58;20.45;;;5.30;99.90;;;;;;4831011;29;20513;-86
2021/10/10 03:43:31;;;;;;;38.22;23.23;;;5.30;99.90;;;;;;4810777;29;20037;-87
2021/10/10 03:45:56;;;;;;;40.70;23.35;;;5.30;99.90;;;;;;4809651;29;20037;-86
2021/10/10 03:48:23;;;;;;;39.53;22.52;;;5.30;99.90;;;;;;4827169;29;20438;-88
2021/10/10 03:50:50;;;;;;;36.67;22.55;;;5.20;99.90;;;;;;4797049;29;20045;-87
2021/10/10 03:53:16;;;;;;;30.33;20.55;;;5.20;99.90;;;;;;4823710;29;20228;-86
2021/10/10 03:55:41;;;;;;;30.58;19.65;;;5.20;99.90;;;;;;4814076;29;20053;-87
2021/10/10 03:58:08;;;;;;;36.60;21.15;;;5.20;99.90;;;;;;4843714;29;20045;-87
2021/10/10 04:00:36;;;;;;;34.83;20.95;;;5.20;99.90;;;;;;4817173;29;20045;-86
2021/10/10 04:03:05;;;;;;;39.42;23.00;;;5.10;99.90;;;;;;4850923;29;20045;-87
2021/10/10 04:07:57;;;;;;;38.45;21.75;;;5.20;99.90;;;;;;4840647;29;20041;-87
2021/10/10 04:10:23;;;;;;;30.55;20.77;;;5.10;99.90;;;;;;4839310;29;20049;-87
2021/10/10 04:12:49;;;;;;;32.17;20.50;;;5.10;99.90;;;;;;4810607;29;20041;-86
2021/10/10 04:15:16;;;;;;;31.02;20.20;;;5.10;99.90;;;;;;4826319;29;20105;-87
2021/10/10 04:17:43;;;;;;;38.00;21.20;;;5.10;99.90;;;;;;4828461;29;20049;-89
2021/10/10 04:20:11;;;;;;;39.60;21.30;;;5.00;99.90;;;;;;4812448;29;20068;-86
2021/10/10 04:22:38;;;;;;;35.22;21.48;;;5.00;99.90;;;;;;4840404;29;20046;-86
2021/10/10 04:25:05;;;;;;;30.02;19.27;;;4.90;99.90;;;;;;4839422;29;20082;-86
2021/10/10 04:27:33;;;;;;;40.08;21.98;;;4.90;99.90;;;;;;4819635;29;20450;-88
2021/10/10 04:29:59;;;;;;;31.98;21.05;;;4.90;99.90;;;;;;4836952;29;20160;-86
2021/10/10 04:32:24;;;;;;;32.17;18.20;;;4.90;99.90;;;;;;4842779;29;20529;-86
2021/10/10 04:34:50;;;;;;;33.33;20.17;;;4.90;99.90;;;;;;4819789;29;20042;-86
2021/10/10 04:37:16;;;;;;;33.47;22.15;;;4.90;99.90;;;;;;4831787;29;20132;-85
2021/10/10 04:39:42;;;;;;;38.28;21.23;;;4.90;99.90;;;;;;4816188;29;20512;-86
2021/10/10 04:42:07;;;;;;;30.65;19.38;;;4.90;99.90;;;;;;4833250;29;20042;-85
2021/10/10 04:44:35;;;;;;;33.05;19.25;;;4.90;99.90;;;;;;4817078;29;20382;-86
2021/10/10 04:47:02;;;;;;;35.45;20.45;;;4.80;99.90;;;;;;4826880;29;20041;-85
2021/10/10 04:49:28;;;;;;;30.30;20.35;;;4.80;99.90;;;;;;4834186;29;20125;-87
2021/10/10 04:51:54;;;;;;;36.38;21.42;;;4.80;99.90;;;;;;4795844;29;20189;-87
2021/10/10 04:54:20;;;;;;;31.90;20.40;;;4.70;99.90;;;;;;4795074;29;20049;-88
2021/10/10 04:56:45;;;;;;;34.95;22.08;;;4.80;99.90;;;;;;4819733;29;20049;-86
2021/10/10 04:59:11;;;;;;;32.72;20.67;;;4.70;99.90;;;;;;4825008;29;20041;-86
2021/10/10 05:01:37;;;;;;;41.92;22.20;;;4.80;99.90;;;;;;4808666;29;20578;-86
2021/10/10 05:04:03;;;;;;;32.85;21.73;;;4.80;99.90;;;;;;4809818;29;20090;-89
2021/10/10 05:06:28;;;;;;;32.25;21.25;;;4.70;99.90;;;;;;4810210;29;20105;-86
2021/10/10 05:08:54;;;;;;;44.33;23.67;;;4.70;99.90;;;;;;4794964;29;20076;-86
2021/10/10 05:11:20;;;;;;;39.92;23.15;;;4.70;99.90;;;;;;4830551;29;20049;-86
2021/10/10 05:13:45;;;;;;;38.50;21.25;;;4.70;99.90;;;;;;4822538;29;20132;-86
2021/10/10 05:16:11;;;;;;;35.63;21.48;;;4.70;99.90;;;;;;4800637;29;20053;-89
2021/10/10 05:18:37;;;;;;;31.13;20.90;;;4.60;99.90;;;;;;4836244;29;20271;-86
2021/10/10 05:21:03;;;;;;;25.27;18.83;;;4.60;99.90;;;;;;4798337;29;20041;-87
2021/10/10 05:23:28;;;;;;;36.45;20.65;;;4.60;99.90;;;;;;4812000;29;20117;-88
2021/10/10 05:25:54;;;;;;;30.27;20.00;;;4.60;99.90;;;;;;4812149;29;20101;-87
2021/10/10 05:28:20;;;;;;;32.20;20.63;;;4.60;99.90;;;;;;4806656;29;20105;-89
2021/10/10 05:30:46;;;;;;;28.75;19.13;;;4.60;99.90;;;;;;4807723;29;20525;-86
2021/10/10 05:33:11;;;;;;;30.38;20.38;;;4.60;99.90;;;;;;4824144;29;20141;-86
2021/10/10 05:35:37;;;;;;;33.08;19.10;;;4.60;99.90;;;;;;4813312;29;20144;-86
2021/10/10 05:38:03;;;;;;;34.53;21.05;;;4.60;99.90;;;;;;4814050;29;20071;-87
2021/10/10 05:40:29;;;;;;;34.53;20.65;;;4.60;99.90;;;;;;4807986;29;20535;-86
2021/10/10 05:42:55;;;;;;;30.10;20.30;;;4.50;99.90;;;;;;4822634;29;20044;-87
2021/10/10 05:45:20;;;;;;;35.60;22.17;;;4.50;99.90;;;;;;4809830;29;20385;-87
2021/10/10 05:47:46;;;;;;;32.05;20.90;;;4.50;99.90;;;;;;4813016;29;20048;-87
2021/10/10 05:50:12;;;;;;;48.20;22.25;;;4.50;99.90;;;;;;4802923;29;20049;-87
2021/10/10 05:52:37;;;;;;;41.35;21.73;;;4.50;99.90;;;;;;4795885;29;20055;-87
2021/10/10 05:55:07;;;;;;;34.65;20.02;;;4.50;99.90;;;;;;4810613;29;20062;-86
2021/10/10 05:57:55;;;;;;;29.27;19.77;;;4.50;99.90;;;;;;4810425;29;20141;-88
2021/10/10 06:00:20;;;;;;;32.45;19.60;;;4.50;99.90;;;;;;4821994;29;20076;-89
2021/10/10 06:02:46;;;;;;;26.25;18.45;;;4.50;99.90;;;;;;4810833;29;20136;-88
2021/10/10 06:05:13;;;;;;;31.08;19.95;;;4.50;99.90;;;;;;4807381;29;20051;-87
2021/10/10 06:07:39;;;;;;;33.65;21.45;;;4.40;99.90;;;;;;4812346;29;20857;-86
2021/10/10 06:10:07;;;;;;;37.38;22.92;;;4.40;99.90;;;;;;4816821;29;20136;-88
2021/10/10 06:12:34;;;;;;;33.42;22.05;;;4.40;99.90;;;;;;4823298;29;20386;-88
2021/10/10 06:15:03;;;;;;;24.80;16.75;;;4.40;99.90;;;;;;4835087;29;20121;-86
2021/10/10 06:17:30;;;;;;;18.95;15.98;;;4.40;99.90;;;;;;4819342;29;20470;-89
2021/10/10 06:19:56;;;;;;;22.52;15.68;;;4.40;99.90;;;;;;4818700;29;20052;-87
2021/10/10 06:22:22;;;;;;;28.35;16.80;;;4.40;99.90;;;;;;4819808;29;20045;-86
2021/10/10 06:24:47;;;;;;;32.92;17.85;;;4.40;99.90;;;;;;4825988;29;20140;-87
2021/10/10 06:27:15;;;;;;;22.10;15.85;;;4.40;99.90;;;;;;4809619;29;20120;-86
2021/10/10 06:29:40;;;;;;;30.92;21.05;;;4.40;99.90;;;;;;4807950;29;20049;-86
2021/10/10 06:32:06;;;;;;;41.50;23.52;;;4.40;99.90;;;;;;4852296;29;20101;-87
2021/10/10 06:34:32;;;;;;;41.60;24.17;;;4.40;99.90;;;;;;4833219;29;20500;-89
2021/10/10 06:36:58;;;;;;;29.95;20.80;;;4.40;99.90;;;;;;4826123;29;20540;-87
2021/10/10 06:39:23;;;;;;;29.65;19.73;;;4.50;99.90;;;;;;4829098;29;20419;-87
2021/10/10 06:41:50;;;;;;;26.92;17.55;;;4.50;99.90;;;;;;4822044;29;20032;-87
2021/10/10 06:44:19;;;;;;;28.33;18.55;;;4.60;99.90;;;;;;4810583;29;20457;-86
2021/10/10 06:46:45;;;;;;;28.55;19.48;;;4.60;99.90;;;;;;4817745;29;20124;-87
2021/10/10 06:49:12;;;;;;;32.30;19.63;;;4.60;99.90;;;;;;4822001;29;20049;-90
2021/10/10 06:51:38;;;;;;;36.83;20.17;;;4.70;99.90;;;;;;4834202;29;20473;-87
2021/10/10 06:54:04;;;;;;;33.70;21.15;;;4.70;99.90;;;;;;4812149;29;20044;-86
2021/10/10 06:56:29;;;;;;;32.58;19.35;;;4.70;99.90;;;;;;4821089;29;20348;-87
2021/10/10 06:58:55;;;;;;;47.50;24.77;;;4.80;99.90;;;;;;4824046;29;20041;-90
2021/10/10 07:01:21;;;;;;;42.50;25.17;;;4.90;99.90;;;;;;4831875;29;20117;-85
2021/10/10 07:03:47;;;;;;;39.72;24.95;;;4.90;99.90;;;;;;4825128;29;20917;-86
2021/10/10 07:06:12;;;;;;;53.80;28.30;;;5.00;99.90;;;;;;4821976;29;20037;-86
2021/10/10 07:08:38;;;;;;;43.92;26.63;;;5.10;99.90;;;;;;4811608;29;20392;-86
2021/10/10 07:11:04;;;;;;;43.33;25.63;;;5.10;99.90;;;;;;4837899;29;20051;-87
2021/10/10 07:13:30;;;;;;;41.40;25.42;;;5.20;99.90;;;;;;4827209;29;20129;-87
2021/10/10 07:15:56;;;;;;;43.88;25.75;;;5.30;99.90;;;;;;4833508;29;20485;-86
2021/10/10 07:18:26;;;;;;;44.38;26.95;;;5.40;99.90;;;;;;4834501;29;20045;-86
2021/10/10 07:23:34;;;;;;;42.63;26.13;;;5.60;99.90;;;;;;4826220;29;20715;-85
2021/10/10 07:26:01;;;;;;;38.00;23.88;;;5.70;99.90;;;;;;4827577;29;20072;-87
2021/10/10 07:28:27;;;;;;;35.90;22.13;;;5.80;99.90;;;;;;4813034;29;20053;-86
2021/10/10 07:30:54;;;;;;;37.55;24.30;;;5.90;99.90;;;;;;4831786;29;20077;-86
2021/10/10 07:33:20;;;;;;;36.42;25.20;;;5.90;99.90;;;;;;4815917;29;20104;-85
2021/10/10 07:35:46;;;;;;;32.78;23.80;;;6.00;99.90;;;;;;4829194;29;20465;-86
2021/10/10 07:38:11;;;;;;;36.80;24.00;;;6.10;99.90;;;;;;4828065;29;20124;-86
2021/10/10 07:40:38;;;;;;;35.28;23.83;;;6.10;99.90;;;;;;4830045;29;20037;-86
2021/10/10 07:43:04;;;;;;;36.20;22.67;;;6.20;99.90;;;;;;4829029;29;20077;-86
2021/10/10 07:45:31;;;;;;;40.58;26.02;;;6.20;99.90;;;;;;4842565;29;20460;-86
2021/10/10 07:48:02;;;;;;;41.28;24.33;;;6.20;99.90;;;;;;4807679;29;20128;-87
2021/10/10 07:50:29;;;;;;;36.58;24.92;;;6.30;99.90;;;;;;4837345;29;20537;-86
2021/10/10 07:52:54;;;;;;;42.38;25.92;;;6.40;99.90;;;;;;4855906;29;20460;-86
2021/10/10 07:55:20;;;;;;;41.08;25.60;;;6.50;99.90;;;;;;4813976;29;20056;-86
2021/10/10 07:57:46;;;;;;;39.83;25.65;;;6.50;99.90;;;;;;4834350;29;20500;-86
2021/10/10 08:00:12;;;;;;;37.20;24.83;;;6.50;99.90;;;;;;4853961;29;20105;-86
2021/10/10 08:02:57;;;;;;;36.63;24.38;;;6.60;99.90;;;;;;4819023;29;20041;-85
2021/10/10 08:05:25;;;;;;;38.28;26.05;;;6.70;99.90;;;;;;4842333;29;20038;-86
2021/10/10 08:07:50;;;;;;;39.30;25.25;;;6.70;99.90;;;;;;4835958;29;20400;-85
2021/10/10 08:10:17;;;;;;;44.47;25.67;;;6.70;99.90;;;;;;4830092;29;20995;-86
2021/10/10 08:12:43;;;;;;;42.60;27.25;;;6.80;99.90;;;;;;4821097;29;20505;-86
2021/10/10 08:15:10;;;;;;;42.83;27.05;;;6.90;99.90;;;;;;4816580;29;20045;-86
2021/10/10 08:17:36;;;;;;;42.30;26.60;;;6.90;99.90;;;;;;4849863;29;20040;-85
2021/10/10 08:20:03;;;;;;;40.08;27.10;;;7.10;99.90;;;;;;4826999;29;20132;-86
2021/10/10 08:22:29;;;;;;;41.08;28.17;;;7.10;99.90;;;;;;4838664;29;20052;-87
2021/10/10 08:24:55;;;;;;;39.95;26.92;;;7.20;99.90;;;;;;4817762;29;20109;-88
2021/10/10 08:27:22;;;;;;;39.90;27.25;;;7.20;99.90;;;;;;4844612;29;20414;-86
2021/10/10 08:29:47;;;;;;;43.53;26.85;;;7.40;99.90;;;;;;4834235;29;20469;-87
2021/10/10 08:32:13;;;;;;;43.60;27.08;;;7.40;99.90;;;;;;4821382;29;20128;-87
2021/10/10 08:34:39;;;;;;;40.15;26.85;;;7.50;99.90;;;;;;4836055;29;20080;-87
2021/10/10 08:37:05;;;;;;;40.63;27.80;;;7.50;99.90;;;;;;4852195;29;20588;-86
2021/10/10 08:39:30;;;;;;;42.38;27.73;;;7.60;99.90;;;;;;4834691;29;20112;-86
2021/10/10 08:41:59;;;;;;;43.08;28.05;;;7.70;99.90;;;;;;4840532;29;20046;-87
2021/10/10 08:44:32;;;;;;;39.55;27.05;;;7.70;99.90;;;;;;4848363;29;20047;-87
2021/10/10 08:47:05;;;;;;;47.50;28.45;;;7.80;99.90;;;;;;4846147;29;20109;-87
2021/10/10 08:49:32;;;;;;;44.25;27.67;;;7.90;99.90;;;;;;4843825;29;20081;-85
2021/10/10 08:52:05;;;;;;;47.03;28.88;;;8.00;99.90;;;;;;4841119;29;20296;-86
2021/10/10 08:54:31;;;;;;;41.08;28.85;;;8.20;99.90;;;;;;4835165;29;20080;-87
2021/10/10 08:56:57;;;;;;;45.70;29.02;;;8.30;99.90;;;;;;4836156;29;20468;-86
2021/10/10 08:59:25;;;;;;;42.40;28.55;;;8.40;99.90;;;;;;4838306;29;20037;-87
2021/10/10 09:01:53;;;;;;;41.65;29.05;;;8.50;99.90;;;;;;4828765;29;20504;-89
2021/10/10 09:04:19;;;;;;;40.30;29.05;;;8.60;99.90;;;;;;4829946;29;20068;-87
2021/10/10 09:06:52;;;;;;;42.75;28.33;;;8.70;99.90;;;;;;4847655;29;20446;-87
2021/10/10 09:09:30;;;;;;;43.72;28.35;;;8.80;99.90;;;;;;4835925;29;20113;-88
2021/10/10 09:12:02;;;;;;;44.63;28.17;;;8.90;99.90;;;;;;4830732;29;20041;-85
2021/10/10 09:14:35;;;;;;;46.22;29.50;;;8.90;99.90;;;;;;4831287;29;20456;-88
2021/10/10 09:17:14;;;;;;;45.72;29.48;;;9.00;99.90;;;;;;4839634;29;20045;-87
2021/10/10 09:19:49;;;;;;;43.85;27.88;;;9.10;99.90;;;;;;4856834;29;20137;-87
2021/10/10 09:22:15;;;;;;;44.17;29.35;;;9.10;99.90;;;;;;4854838;29;20064;-87
2021/10/10 09:24:46;;;;;;;43.35;28.90;;;9.20;99.90;;;;;;4837639;29;20033;-88
2021/10/10 09:27:13;;;;;;;44.05;30.27;;;9.20;99.90;;;;;;4846367;29;20064;-87
2021/10/10 09:29:42;;;;;;;45.03;29.33;;;9.20;99.90;;;;;;4830600;29;20418;-88
2021/10/10 09:32:11;;;;;;;39.28;28.25;;;9.30;99.90;;;;;;4841528;29;20041;-87
2021/10/10 09:34:38;;;;;;;44.90;29.75;;;9.40;99.90;;;;;;4841390;29;20036;-88
2021/10/10 09:37:07;;;;;;;46.13;29.50;;;9.40;99.90;;;;;;4833879;29;20128;-86
2021/10/10 09:39:40;;;;;;;44.95;30.42;;;9.40;99.90;;;;;;4828898;29;20073;-87
2021/10/10 09:42:06;;;;;;;43.33;30.35;;;9.50;99.90;;;;;;4842468;29;20045;-88
2021/10/10 09:44:46;;;;;;;43.30;30.40;;;9.50;99.90;;;;;;4801515;29;20096;-90
2021/10/10 09:47:12;;;;;;;45.83;30.30;;;9.50;99.90;;;;;;4829222;29;20060;-87
2021/10/10 09:49:38;;;;;;;43.83;31.33;;;9.50;99.90;;;;;;4824449;29;20041;-88
2021/10/10 09:52:07;;;;;;;45.95;30.17;;;9.60;99.90;;;;;;4813684;29;20417;-87
2021/10/10 09:54:47;;;;;;;49.33;32.22;;;9.60;99.90;;;;;;4825459;29;20053;-90
2021/10/10 09:57:13;;;;;;;42.20;30.48;;;9.80;99.90;;;;;;4839892;29;20121;-87
2021/10/10 09:59:39;;;;;;;44.47;31.05;;;9.80;99.90;;;;;;4800975;29;21909;-85
2021/10/10 10:02:04;;;;;;;50.75;31.75;;;9.90;99.90;;;;;;4794359;29;20060;-85
2021/10/10 10:04:47;;;;;;;44.15;30.98;;;10.00;99.90;;;;;;4820540;29;20405;-86
2021/10/10 10:07:22;;;;;;;45.90;31.50;;;10.10;99.90;;;;;;4823917;29;20093;-85
2021/10/10 10:09:51;;;;;;;46.00;30.88;;;10.20;99.90;;;;;;4813266;29;20059;-84
2021/10/10 10:12:24;;;;;;;42.15;29.70;;;10.30;99.90;;;;;;4804223;29;20049;-86
2021/10/10 10:14:54;;;;;;;41.72;29.98;;;10.40;99.90;;;;;;4830525;29;20287;-86
2021/10/10 10:17:24;;;;;;;47.17;31.42;;;10.50;99.90;;;;;;4827338;29;20048;-86
2021/10/10 10:19:51;;;;;;;44.45;30.13;;;10.60;99.90;;;;;;4842224;29;20124;-86
2021/10/10 10:22:17;;;;;;;48.33;30.27;;;10.70;99.90;;;;;;4830939;29;20119;-86
2021/10/10 10:24:45;;;;;;;44.20;29.90;;;10.70;99.90;;;;;;4809912;29;20040;-85
2021/10/10 10:27:16;;;;;;;42.83;30.33;;;10.80;99.90;;;;;;4833685;29;20049;-86
2021/10/10 10:29:54;;;;;;;44.03;30.77;;;10.90;99.90;;;;;;4792597;29;20067;-86
2021/10/10 10:32:23;;;;;;;42.47;30.05;;;11.00;99.90;;;;;;4821510;29;20044;-84
2021/10/10 10:35:08;;;;;;;45.45;29.40;;;11.10;99.90;;;;;;4838254;29;20090;-86
2021/10/10 10:37:43;;;;;;;44.75;28.52;;;11.10;99.90;;;;;;4821990;29;20400;-85
2021/10/10 10:40:14;;;;;;;40.47;27.23;;;11.20;99.90;;;;;;4817735;29;20040;-86
2021/10/10 10:42:42;;;;;;;38.30;28.23;;;11.30;99.90;;;;;;4821850;29;20049;-88
2021/10/10 10:45:29;;;;;;;39.38;26.98;;;11.40;99.90;;;;;;4784576;29;20166;-86
2021/10/10 10:47:57;;;;;;;43.67;27.98;;;11.50;99.90;;;;;;4842859;29;20076;-84
2021/10/10 10:50:40;;;;;;;35.60;26.88;;;11.60;99.90;;;;;;4828037;29;20104;-84
2021/10/10 10:53:49;;;;;;;;;;;11.70;99.90;;;;;;4844974;29;20041;-87
2021/10/10 10:56:29;;;;;;;39.08;26.67;;;11.80;99.90;;;;;;4823557;29;20015;-87
2021/10/10 10:59:15;;;;;;;36.78;25.30;;;11.90;99.90;;;;;;4822271;29;20072;-85
2021/10/10 11:02:03;;;;;;;34.78;25.60;;;12.00;99.90;;;;;;4831042;29;20407;-85
2021/10/10 11:04:29;;;;;;;43.03;25.45;;;12.00;99.90;;;;;;4831275;29;20045;-86
2021/10/10 11:06:59;;;;;;;37.85;24.05;;;12.10;99.90;;;;;;4820214;29;20038;-85
2021/10/10 11:09:26;;;;;;;37.08;24.85;;;12.20;99.90;;;;;;4810615;29;20091;-86
2021/10/10 11:11:57;;;;;;;33.13;24.27;;;12.30;99.90;;;;;;4837323;29;20045;-86
2021/10/10 11:14:28;;;;;;;38.05;24.80;;;12.40;99.90;;;;;;4827300;29;20057;-86
2021/10/10 11:17:05;;;;;;;35.92;22.55;;;12.50;99.90;;;;;;4817275;29;20734;-86
2021/10/10 11:19:30;;;;;;;36.92;24.60;;;12.60;99.90;;;;;;4832389;29;20048;-86
2021/10/10 11:21:57;;;;;;;36.53;25.98;;;12.60;99.90;;;;;;4802510;29;20037;-86
2021/10/10 11:24:22;;;;;;;40.83;26.85;;;12.70;99.90;;;;;;4826832;29;20090;-88
2021/10/10 11:26:51;;;;;;;33.03;24.73;;;12.70;99.90;;;;;;4811934;29;20033;-87
2021/10/10 11:29:19;;;;;;;39.33;25.35;;;12.80;99.90;;;;;;4848070;29;20041;-86
2021/10/10 11:31:46;;;;;;;36.67;25.23;;;12.90;99.90;;;;;;4822203;29;20049;-86
2021/10/10 11:34:14;;;;;;;34.55;24.75;;;13.00;99.90;;;;;;4824436;29;20056;-87
2021/10/10 11:36:49;;;;;;;34.47;24.73;;;13.20;99.90;;;;;;4827584;29;20043;-89
2021/10/10 11:39:26;;;;;;;37.13;25.15;;;13.20;99.90;;;;;;4841121;29;20045;-88
2021/10/10 11:42:10;;;;;;;34.92;24.15;;;13.30;99.90;;;;;;4838914;29;20248;-86
2021/10/10 11:44:41;;;;;;;40.15;26.50;;;13.30;99.90;;;;;;4845007;29;20533;-87
2021/10/10 11:47:29;;;;;;;37.22;26.20;;;13.40;99.90;;;;;;4840507;29;20038;-88
2021/10/10 11:50:03;;;;;;;35.63;22.90;;;13.40;99.90;;;;;;4818538;29;20445;-88
2021/10/10 11:55:09;;;;;;;40.58;26.83;;;13.50;99.90;;;;;;4838567;29;20045;-88
2021/10/10 11:57:36;;;;;;;41.08;25.58;;;13.60;99.90;;;;;;4839347;29;20049;-87
2021/10/10 12:00:13;;;;;;;45.17;27.63;;;13.70;99.90;;;;;;4831481;29;20045;-87
2021/10/10 12:02:47;;;;;;;42.75;27.30;;;13.80;99.90;;;;;;4838877;29;20614;-88
2021/10/10 12:05:23;;;;;;;42.30;28.05;;;13.90;99.90;;;;;;4840639;29;20049;-88
2021/10/10 12:07:52;;;;;;;42.65;27.48;;;13.90;99.90;;;;;;4829186;29;20045;-87
2021/10/10 12:10:24;;;;;;;40.70;27.48;;;14.00;99.90;;;;;;4841372;29;20420;-87
2021/10/10 12:12:54;;;;;;;43.78;27.17;;;14.00;99.90;;;;;;4824877;29;20052;-89
2021/10/10 12:15:21;;;;;;;37.72;27.83;;;14.10;99.90;;;;;;4839093;29;20073;-89
2021/10/10 12:17:54;;;;;;;42.28;27.63;;;14.10;99.90;;;;;;4844081;29;20074;-89
2021/10/10 12:20:23;;;;;;;37.70;25.77;;;14.20;99.90;;;;;;4822845;29;20037;-91
2021/10/10 12:22:54;;;;;;;42.47;28.08;;;14.20;99.90;;;;;;4847356;29;20056;-88
2021/10/10 12:25:23;;;;;;;46.60;27.77;;;14.30;99.90;;;;;;4847286;29;20580;-88
2021/10/10 12:28:01;;;;;;;40.85;27.80;;;14.40;99.90;;;;;;4832303;29;20041;-88
2021/10/10 12:30:31;;;;;;;41.72;28.02;;;14.40;99.90;;;;;;4859491;29;20048;-88
2021/10/10 12:32:58;;;;;;;44.40;29.13;;;14.50;99.90;;;;;;4837039;29;20041;-88
2021/10/10 12:35:24;;;;;;;41.85;26.33;;;14.50;99.90;;;;;;4845759;29;20042;-88
2021/10/10 12:37:58;;;;;;;39.97;27.55;;;14.60;99.70;;;;;;4807537;29;20113;-87
2021/10/10 12:40:44;;;;;;;40.63;26.20;;;14.60;99.20;;;;;;4826160;29;20038;-88
2021/10/10 12:43:09;;;;;;;43.00;27.80;;;14.60;99.00;;;;;;4832914;29;20048;-87
2021/10/10 12:45:52;;;;;;;41.10;27.42;;;14.60;98.80;;;;;;4818090;29;20045;-87
2021/10/10 12:48:21;;;;;;;43.85;29.15;;;14.70;98.70;;;;;;4811423;29;20046;-87